createdAt,value
2018-09-21T00:01:50.538Z,19.11
2018-09-21T00:06:49.995Z,18.94
2018-09-21T00:11:50.176Z,19.04
2018-09-21T00:16:50.491Z,19.14
2018-09-21T00:21:49.935Z,19.06
2018-09-21T00:26:50.569Z,19.22
2018-09-21T00:31:49.811Z,19.21
2018-09-21T00:36:50.288Z,19.34
2018-09-21T00:41:50.532Z,19.43
2018-09-21T00:46:49.819Z,19.34
2018-09-21T00:51:50.312Z,19.45
2018-09-21T00:56:49.887Z,19.45
2018-09-21T01:01:50.214Z,19.27
2018-09-21T01:06:50.692Z,19.39
2018-09-21T01:11:49.947Z,19.49
2018-09-21T01:16:50.222Z,19.49
2018-09-21T01:21:50.692Z,19.50
2018-09-21T01:26:50.290Z,19.68
2018-09-21T01:31:50.581Z,19.54
2018-09-21T01:36:50.081Z,19.56
2018-09-21T01:41:50.256Z,19.62
2018-09-21T01:46:50.542Z,19.54
2018-09-21T01:51:50.022Z,19.56
2018-09-21T01:56:50.601Z,19.57
2018-09-21T02:01:49.888Z,19.51
2018-09-21T02:06:50.396Z,19.59
2018-09-21T02:11:50.621Z,19.41
2018-09-21T02:16:49.957Z,19.48
2018-09-21T02:21:50.433Z,19.44
2018-09-21T02:26:50.011Z,19.43
2018-09-21T02:31:50.295Z,19.40
2018-09-21T02:36:50.757Z,19.46
2018-09-21T02:41:49.990Z,19.44
2018-09-21T02:46:50.317Z,19.46
2018-09-21T02:51:50.750Z,19.44
2018-09-21T02:56:50.391Z,19.35
2018-09-21T03:01:50.670Z,19.46
2018-09-21T03:06:50.142Z,19.43
2018-09-21T03:11:50.372Z,19.43
2018-09-21T03:16:50.663Z,19.41
2018-09-21T03:21:50.107Z,19.53
2018-09-21T03:26:50.711Z,19.47
2018-09-21T03:31:50.024Z,19.57
2018-09-21T03:36:50.445Z,19.54
2018-09-21T03:41:50.642Z,19.64
2018-09-21T03:46:49.982Z,19.62
2018-09-21T03:51:50.414Z,19.60
2018-09-21T03:56:50.017Z,19.62
2018-09-21T04:01:50.357Z,19.65
2018-09-21T04:06:50.772Z,19.67
2018-09-21T04:11:50.035Z,19.67
2018-09-21T04:16:50.284Z,19.78
2018-09-21T04:21:50.738Z,19.77
2018-09-21T04:26:50.330Z,19.75
2018-09-21T04:31:50.617Z,19.88
2018-09-21T04:36:50.057Z,19.88
2018-09-21T04:41:50.296Z,19.88
2018-09-21T04:46:51.635Z,19.82
2018-09-21T04:51:50.084Z,19.92
2018-09-21T04:56:50.674Z,20.03
2018-09-21T05:01:49.964Z,19.93
2018-09-21T05:06:50.438Z,20.02
2018-09-21T05:11:50.307Z,19.95
2018-09-21T05:16:50.608Z,20.07
2018-09-21T05:21:50.109Z,20.07
2018-09-21T05:26:50.684Z,20.07
2018-09-21T05:31:49.953Z,20.09
2018-09-21T05:36:50.899Z,20.09
2018-09-21T05:41:50.670Z,20.02
2018-09-21T05:46:50.139Z,20.16
2018-09-21T05:51:50.436Z,20.16
2018-09-21T05:56:50.004Z,20.27
2018-09-21T06:01:50.291Z,20.21
2018-09-21T06:06:50.784Z,20.31
2018-09-21T06:11:49.969Z,20.32
2018-09-21T06:16:50.278Z,20.34
2018-09-21T06:21:50.756Z,20.34
2018-09-21T06:26:50.326Z,20.39
2018-09-21T06:31:50.679Z,20.36
2018-09-21T06:36:50.093Z,20.44
2018-09-21T06:41:50.320Z,20.44
2018-09-21T06:46:50.604Z,20.46
2018-09-21T06:51:50.069Z,20.52
2018-09-21T06:56:50.646Z,20.51
2018-09-21T07:01:50.223Z,20.47
2018-09-21T07:06:50.449Z,20.39
2018-09-21T07:11:50.695Z,20.37
2018-09-21T07:16:49.997Z,20.34
2018-09-21T07:21:50.400Z,20.34
2018-09-21T07:26:49.961Z,20.42
2018-09-21T07:31:50.314Z,20.40
2018-09-21T07:36:51.087Z,20.40
2018-09-21T07:41:49.953Z,20.40
2018-09-21T07:46:50.256Z,20.23
2018-09-21T07:51:50.741Z,20.31
2018-09-21T07:56:50.297Z,20.24
2018-09-21T08:01:50.580Z,20.28
2018-09-21T08:06:50.044Z,20.28
2018-09-21T08:11:50.277Z,20.39
2018-09-21T08:16:50.575Z,20.36
2018-09-21T08:21:50.010Z,20.23
2018-09-21T08:26:50.646Z,20.08
2018-09-21T08:31:49.891Z,20.08
2018-09-21T08:36:50.412Z,20.27
2018-09-21T08:41:50.524Z,20.16
2018-09-21T08:46:49.855Z,20.18
2018-09-21T08:51:50.315Z,20.07
2018-09-21T08:56:49.927Z,20.22
2018-09-21T09:01:50.171Z,20.14
2018-09-21T09:06:50.692Z,19.68
2018-09-21T09:11:49.917Z,19.48
2018-09-21T09:16:50.219Z,17.68
2018-09-21T09:21:50.673Z,17.18
2018-09-21T09:26:50.291Z,17.68
2018-09-21T09:31:50.521Z,16.94
2018-09-21T09:36:50.144Z,16.68
2018-09-21T09:41:50.186Z,16.88
2018-09-21T09:46:50.494Z,16.98
2018-09-21T09:51:49.946Z,16.28
2018-09-21T09:56:50.537Z,16.88
2018-09-21T10:01:49.841Z,17.18
2018-09-21T10:06:50.295Z,16.48
2018-09-21T10:11:50.488Z,16.68
2018-09-21T10:16:49.823Z,16.48
2018-09-21T10:21:50.256Z,16.98
2018-09-21T10:26:50.025Z,16.08
2018-09-21T10:31:50.164Z,16.68
2018-09-21T10:36:50.552Z,16.78
2018-09-21T10:41:49.777Z,16.58
2018-09-21T10:46:50.083Z,16.58
2018-09-21T10:51:50.555Z,16.68
2018-09-21T10:56:50.145Z,16.58
2018-09-21T11:01:50.503Z,16.78
2018-09-21T11:06:49.953Z,17.08
2018-09-21T11:11:50.196Z,17.18
2018-09-21T11:16:50.467Z,17.18
2018-09-21T11:21:49.939Z,17.18
2018-09-21T11:26:50.498Z,16.98
2018-09-21T11:31:49.812Z,17.08
2018-09-21T11:36:50.223Z,17.18
2018-09-21T11:41:50.438Z,17.28
2018-09-21T11:46:50.209Z,17.18
2018-09-21T11:51:50.238Z,17.28
2018-09-21T11:56:49.836Z,17.08
2018-09-21T12:01:50.304Z,17.28
2018-09-21T12:06:50.548Z,17.48
2018-09-21T12:11:49.817Z,17.48
2018-09-21T12:16:50.244Z,17.58
2018-09-21T12:21:50.578Z,17.38
2018-09-21T12:26:50.163Z,17.38
2018-09-21T12:31:50.461Z,17.48
2018-09-21T12:36:49.919Z,17.18
2018-09-21T12:41:50.124Z,17.48
2018-09-21T12:46:50.459Z,17.58
2018-09-21T12:51:49.938Z,17.48
2018-09-21T12:56:50.484Z,17.48
2018-09-21T13:01:49.813Z,17.48
2018-09-21T13:06:50.308Z,17.48
2018-09-21T13:11:50.532Z,17.68
2018-09-21T13:16:49.816Z,17.54
2018-09-21T13:21:50.954Z,17.54
2018-09-21T13:26:50.278Z,17.03
2018-09-21T13:31:50.201Z,16.56
2018-09-21T13:36:50.675Z,16.11
2018-09-21T13:41:49.865Z,16.16
2018-09-21T13:46:50.173Z,16.34
2018-09-21T13:51:50.833Z,16.34
2018-09-21T13:56:50.292Z,16.34
2018-09-21T14:01:50.528Z,16.14
2018-09-21T14:06:50.056Z,15.59
2018-09-21T14:11:50.251Z,16.09
2018-09-21T14:16:50.566Z,16.04
2018-09-21T14:21:50.020Z,16.54
2018-09-21T14:26:50.602Z,15.98
2018-09-21T14:31:49.887Z,15.72
2018-09-21T14:36:50.458Z,16.21
2018-09-21T14:41:50.582Z,15.83
2018-09-21T14:46:49.892Z,15.98
2018-09-21T14:51:50.325Z,15.74
2018-09-21T14:56:49.978Z,15.41
2018-09-21T15:01:50.258Z,15.24
2018-09-21T15:06:50.754Z,15.39
2018-09-21T15:11:50.965Z,15.27
2018-09-21T15:16:50.238Z,14.90
2018-09-21T15:21:50.730Z,14.97
2018-09-21T15:26:50.328Z,15.26
2018-09-21T15:31:50.590Z,15.02
2018-09-21T15:36:50.088Z,14.92
2018-09-21T15:41:50.286Z,15.69
2018-09-21T15:46:50.536Z,15.48
2018-09-21T15:51:50.007Z,15.50
2018-09-21T15:56:50.781Z,15.56
2018-09-21T16:01:49.916Z,15.24
2018-09-21T16:06:55.881Z,14.98
2018-09-21T16:11:50.597Z,14.83
2018-09-21T16:16:49.937Z,14.80
2018-09-21T16:21:50.396Z,14.90
2018-09-21T16:26:49.949Z,14.81
2018-09-21T16:31:50.231Z,14.24
2018-09-21T16:36:50.710Z,13.61
2018-09-21T16:41:49.954Z,13.84
2018-09-21T16:46:50.276Z,13.07
2018-09-21T16:51:50.722Z,12.89
2018-09-21T16:56:50.339Z,12.60
2018-09-21T17:01:50.590Z,12.27
2018-09-21T17:06:50.096Z,12.34
2018-09-21T17:11:50.315Z,12.42
2018-09-21T17:16:50.617Z,11.99
2018-09-21T17:21:50.072Z,11.94
2018-09-21T17:26:50.662Z,12.05
2018-09-21T17:31:51.716Z,11.92
2018-09-21T17:36:51.337Z,11.66
2018-09-21T17:41:50.606Z,12.05
2018-09-21T17:46:49.957Z,12.24
2018-09-21T17:51:50.357Z,11.89
2018-09-21T17:56:49.968Z,11.99
2018-09-21T18:01:50.302Z,12.28
2018-09-21T18:06:50.774Z,12.25
2018-09-21T18:11:50.038Z,12.05
2018-09-21T18:16:50.417Z,12.24
2018-09-21T18:21:50.754Z,12.38
2018-09-21T18:26:50.323Z,12.13
2018-09-21T18:31:50.621Z,11.90
2018-09-21T18:36:50.107Z,12.17
2018-09-21T18:41:50.320Z,12.15
2018-09-21T18:46:50.637Z,12.07
2018-09-21T18:51:50.095Z,12.28
2018-09-21T18:56:49.747Z,12.69
2018-09-21T19:01:50.015Z,12.68
2018-09-21T19:06:50.605Z,12.78
2018-09-21T19:11:49.780Z,12.61
2018-09-21T19:16:50.053Z,12.55
2018-09-21T19:21:50.506Z,12.77
2018-09-21T19:26:50.096Z,12.76
2018-09-21T19:31:50.408Z,12.85
2018-09-21T19:36:49.887Z,12.80
2018-09-21T19:41:50.129Z,12.86
2018-09-21T19:46:50.722Z,12.89
2018-09-21T19:51:49.861Z,12.98
2018-09-21T19:56:50.434Z,12.94
2018-09-21T20:01:49.744Z,13.06
2018-09-21T20:06:50.248Z,12.98
2018-09-21T20:11:50.475Z,12.87
2018-09-21T20:16:49.796Z,12.99
2018-09-21T20:21:50.217Z,13.03
2018-09-21T20:26:49.828Z,12.97
2018-09-21T20:31:50.126Z,13.05
2018-09-21T20:36:50.609Z,12.92
2018-09-21T20:41:49.783Z,12.88
2018-09-21T20:46:50.443Z,12.91
2018-09-21T20:51:51.547Z,12.79
2018-09-21T20:56:50.146Z,12.73
2018-09-21T21:01:50.427Z,12.71
2018-09-21T21:06:49.939Z,12.85
2018-09-21T21:11:50.154Z,12.75
2018-09-21T21:16:50.457Z,12.79
2018-09-21T21:21:49.918Z,12.66
2018-09-21T21:26:50.513Z,12.72
2018-09-21T21:31:49.834Z,12.79
2018-09-21T21:36:50.287Z,12.63
2018-09-21T21:41:50.507Z,12.71
2018-09-21T21:46:49.822Z,12.96
2018-09-21T21:51:50.284Z,12.79
2018-09-21T21:56:49.896Z,12.92
2018-09-21T22:01:50.201Z,13.02
2018-09-21T22:06:50.718Z,13.12
2018-09-21T22:11:49.916Z,13.28
2018-09-21T22:16:50.210Z,13.09
2018-09-21T22:21:50.659Z,13.19
2018-09-21T22:26:50.290Z,13.09
2018-09-21T22:31:50.604Z,13.05
2018-09-21T22:36:50.053Z,13.06
2018-09-21T22:41:50.304Z,13.11
2018-09-21T22:46:50.575Z,13.16
2018-09-21T22:51:50.010Z,13.12
2018-09-21T22:56:50.643Z,13.20
2018-09-21T23:01:49.950Z,13.23
2018-09-21T23:06:50.407Z,13.36
2018-09-21T23:11:50.609Z,13.38
2018-09-21T23:16:49.888Z,13.40
2018-09-21T23:21:50.365Z,13.43
2018-09-21T23:26:49.932Z,13.61
2018-09-21T23:31:50.586Z,13.43
2018-09-21T23:36:50.713Z,13.23
2018-09-21T23:41:49.949Z,13.32
2018-09-21T23:46:50.216Z,13.35
2018-09-21T23:51:50.719Z,13.27
2018-09-21T23:56:50.290Z,13.33
